logo dgac
Martes 21 de Septiembre del 2021
Buscar por aerodromo o helipuerto
Ingrese nombre de aeródromo, localidad o designador OACI:

Aeródromo: Pichoy (PUB) (SCVD)

Ubicación: Valdivia, XIV Región, Chile (39º 38' 58'' S, 73º 05' 11'' W) Ver ubicación en el mapa

Pistas

Orientación Dimensión Pendiente Superficie Resistencia APCH THR RWY PAPI
17/35 2100 x 45 0,07 ASPH PCN 57 F/C/W/T Sí (3º)
Horas de operación HJ
Elevación 18 m / 59 ft
Otra Información Adm : DGAC
Uso : PUB
TEL : (56-63)2314302 FAX (56-63)2314316 Anexos ARO 4306/4307
Ubicado a 32 km NE de Valdivia
email : aro.pichoy@dgac.gob.cl

Otra información ver AIP-Chile Volumen I AD 3.9-20.1-V




CCCM/FCCV Descargar
andera de Chile
Mapa de Pichoy (PUB) (SCVD)

Último METAR

METAR SCVD 211000Z AUTO 20002KT 9000 FEW003 00/00 Q1018

Último TAF

TAF SCVD 211021Z 2112/2200 16006KT CAVOK TN03/2112Z TX21/2120Z TEMPO 2112/2114 VRB02KT 2000 BR SCT003 BECMG 2120/2122 VRB02KT

Últimas fotos cámaras

Imagen aerodromo Pichoy (PUB) (SCVD) Sur tomada el 21-09-2021 10:53:25 Imagen aerodromo Pichoy (PUB) (SCVD) Norte tomada el 21-09-2021 10:48:48

Último NOTAM

C4181/21 NOTAMR C3979/21 Q)SCTZ/QFUAU/IV/NBO/A/000/999/3939S07305W005 A)SCVD B)2109201707 C)2111012359 E)FUEL JP1 NO AVBL